Latest Coastal Weather Observations for Port Fairy

IDV60701

Issued at 4:51 pm EDT Wednesday 18 January 2017 (issued every 10 minutes, with the page automatically refreshed every 10 minutes)

About coastal observations | Map of coastal stations | Coastal observations for VIC | Marine services | Other Formats
Station Details ID: 090175 Name: PORT FAIRY AWS Lat: -38.39 Lon: 142.23 Height: 10.0 m
Data from the previous 72 hours. | See also: Recent months at Port Fairy
Date/Time
EDT
Temp
°C
Wind Pressure Rain since
9am
mm
Weather Cloud Vis
km
Sea
Height
m
Swell
Dir  Spd
kts
Gust
kts
hPa Trend Height
m
Period
s
Dir
18/04:30pm 18.4 SSE 12 16 1017.4 - 0.0 - - - - - - -
18/04:00pm 18.3 SSE 12 17 1017.5 - 0.0 - - - - - - -
18/03:30pm 18.1 SSE 11 15 1017.6 - 0.0 - - - - - - -
18/03:00pm 18.1 SSE 11 17 1017.7 - 0.0 - - - - - - -
18/02:30pm 18.7 S 10 15 1017.7 - 0.0 - - - - - - -
18/02:00pm 18.5 S 10 14 1017.7 - 0.0 - - - - - - -
18/01:30pm 18.9 S 9 14 1017.7 - 0.0 - - - - - - -
18/01:00pm 18.4 S 11 15 1017.5 - 0.0 - - - - - - -
18/12:30pm 17.9 S 11 17 1017.4 - 0.0 - - - - - - -
18/12:00pm 16.8 S 9 13 1017.4 - 0.0 - - - - - - -
18/11:30am 16.7 S 11 17 1017.2 - 0.0 - - - - - - -
18/11:00am 18.3 S 9 13 1016.8 - 0.0 - - - - - - -
18/10:30am 17.6 S 10 15 1016.5 - 0.0 - - - - - - -
18/10:00am 16.7 S 11 17 1016.2 - 0.0 - - - - - - -
18/09:30am 16.6 S 12 17 1015.8 - 0.0 - - - - - - -
18/09:00am 16.2 S 13 19 1015.5 - 0.4 - - - - - - -
18/08:30am 16.2 S 13 18 1014.9 - 0.4 - - - - - - -
18/08:00am 16.0 S 14 19 1014.6 - 0.4 - - - - - - -
18/07:30am 16.0 SSW 12 17 1014.1 - 0.4 - - - - - - -
18/07:00am 15.8 SSW 12 18 1013.7 - 0.4 - - - - - - -
18/06:30am 15.7 S 14 19 1013.2 - 0.4 - - - - - - -
18/06:00am 16.2 S 12 19 1012.5 - 0.4 - - - - - - -
18/05:30am 15.9 S 13 17 1012.2 - 0.4 - - - - - - -
18/05:00am 16.0 SSW 12 16 1011.5 - 0.4 - - - - - - -
18/04:30am 15.9 SSW 11 16 1011.0 - 0.4 - - - - - - -
18/04:00am 14.9 WSW 7 9 1010.9 - 0.4 - - - - - - -
18/03:30am 14.8 SW 7 9 1010.9 - 0.2 - - - - - - -
18/03:00am 14.4 SSW 7 12 1009.9 - 0.2 Recent precip. - - - - - -
18/02:30am 14.1 SW 10 15 1011.1 - 0.2 - - - - - - -
18/02:00am 15.1 SW 14 18 1011.3 - 0.0 - - - - - - -
18/01:30am 15.5 SW 16 20 1011.3 - 0.0 - - - - - - -
18/01:00am 15.7 SW 12 15 1011.7 - 0.0 - - - - - - -
18/12:30am 16.0 WSW 12 16 1011.5 - 0.0 - - - - - - -
18/12:00am 16.4 WSW 13 18 1011.3 - 0.0 - - - - - - -
 
Date/Time
EDT
Temp
°C
Wind Pressure Rain since
9am
mm
Weather Cloud Vis
km
Sea
Height
m
Swell
Dir  Spd
kts
Gust
kts
hPa Trend Height
m
Period
s
Dir
17/11:30pm 17.0 SW 13 18 1011.8 - 0.0 - - - - - - -
17/11:00pm 17.1 WSW 11 14 1011.7 - 0.0 - - - - - - -
17/10:30pm 17.3 SW 16 22 1011.8 - 0.0 - - - - - - -
17/10:00pm 17.7 SW 17 21 1011.1 - 0.0 - - - - - - -
17/09:54pm 17.6 SW 16 21 1010.5 - 0.0 - - - - - - -
17/09:30pm 17.6 SW 8 11 1009.9 - 0.0 - - - - - - -
17/09:00pm 17.5 SSW 5 8 1009.3 - 0.0 - - - - - - -
17/08:30pm 17.6 SSW 13 17 1010.0 - 0.0 - - - - - - -
17/08:00pm 18.0 SW 13 16 1009.8 - 0.0 - - - - - - -
17/07:30pm 18.5 SW 12 17 1009.0 - 0.0 - - - - - - -
17/07:00pm 19.2 SW 10 12 1008.0 - 0.0 - - - - - - -
17/06:30pm 19.6 WSW 4 6 1007.0 - 0.0 - - - - - - -
17/06:00pm 19.4 SW 5 7 1006.7 - 0.0 - - - - - - -
17/05:30pm 19.8 SW 2 4 1006.3 - 0.0 - - - - - - -
17/05:00pm 20.0 SSW 4 5 1006.2 - 0.0 - - - - - - -
17/04:30pm 20.1 SSW 6 8 1006.8 - 0.0 - - - - - - -
17/04:00pm 20.4 SW 4 6 1006.9 - 0.0 - - - - - - -
17/03:30pm 20.6 SSW 6 10 1006.8 - 0.0 - - - - - - -
17/03:00pm 20.7 SW 9 12 1007.1 - 0.0 - - - - - - -
17/02:30pm 21.2 WSW 8 10 1007.2 - 0.0 - - - - - - -
17/02:00pm 20.7 SSW 6 11 1007.1 - 0.0 - - - - - - -
17/01:30pm 21.2 SSW 4 6 1007.2 - 0.0 - - - - - - -
17/01:00pm 22.3 SSW 4 5 1007.4 - 0.0 - - - - - - -
17/12:55pm 22.5 S 3 5 1007.3 - 0.0 - - - - - - -
17/12:30pm 27.8 NW 5 9 1007.2 - 0.0 - - - - - - -
17/12:00pm 26.6 NNW 5 8 1007.0 - 0.0 - - - - - - -
17/11:30am 26.0 NW 3 5 1007.4 - 0.0 - - - - - - -
17/11:00am 23.6 NW 5 10 1008.1 - 0.0 - - - - - - -
17/10:30am 21.2 W 3 5 1008.1 - 0.0 - - - - - - -
17/10:00am 21.1 W 5 10 1007.8 - 0.0 - - - - - - -
17/09:30am 22.6 NNW 5 7 1008.1 - 0.0 - - - - - - -
17/09:00am 20.6 NNW 5 8 1008.0 - 0.0 - - - - - - -
17/08:30am 19.5 N 4 6 1007.5 - 0.0 - - - - - - -
17/08:00am 18.5 N 7 10 1007.3 - 0.0 - - - - - - -
17/07:30am 17.6 N 6 8 1007.4 - 0.0 - - - - - - -
17/07:00am 17.5 N 6 7 1007.4 - 0.0 - - - - - - -
17/06:30am 16.4 NNE 4 6 1007.5 - 0.0 - - - - - - -
17/06:00am 16.0 NE 4 5 1007.5 - 0.0 - - - - - - -
17/05:30am 16.2 N 6 7 1007.5 - 0.0 - - - - - - -
17/05:00am 16.3 N 5 7 1007.5 - 0.0 - - - - - - -
17/04:30am 16.3 NW 3 5 1007.4 - 0.0 - - - - - - -
17/04:00am 16.0 N 4 6 1007.5 - 0.0 - - - - - - -
17/03:30am 16.5 N 2 3 1007.8 - 0.0 - - - - - - -
17/03:00am 16.9 N 3 5 1008.1 - 0.0 - - - - - - -
17/02:30am 17.3 N 4 5 1008.1 - 0.0 - - - - - - -
17/02:00am 17.4 N 2 3 1008.5 - 0.0 - - - - - - -
17/01:30am 18.0 SW 2 2 1008.7 - 0.0 - - - - - - -
17/01:00am 18.5 NW 2 3 1009.0 - 0.0 - - - - - - -
17/12:30am 18.7 NW 2 3 1009.2 - 0.0 - - - - - - -
17/12:00am 18.6 NW 2 3 1009.4 - 0.0 - - - - - - -
 
Date/Time
EDT
Temp
°C
Wind Pressure Rain since
9am
mm
Weather Cloud Vis
km
Sea
Height
m
Swell
Dir  Spd
kts
Gust
kts
hPa Trend Height
m
Period
s
Dir
16/11:30pm 18.7 CALM 0 0 1009.3 - 0.0 - - - - - - -
16/11:00pm 19.5 ENE 2 3 1009.5 - 0.0 - - - - - - -
16/10:30pm 18.7 ESE 1 2 1009.8 - 0.0 - - - - - - -
16/10:00pm 19.2 E 2 2 1010.1 - 0.0 - - - - - - -
16/09:30pm 20.0 E 2 3 1009.8 - 0.0 - - - - - - -
16/09:00pm 20.3 ENE 2 3 1009.7 - 0.0 - - - - - - -
16/08:30pm 20.8 E 2 4 1009.8 - 0.0 - - - - - - -
16/08:00pm 21.2 ENE 3 5 1009.5 - 0.0 - - - - - - -
16/07:30pm 22.4 E 3 4 1009.3 - 0.0 - - - - - - -
16/07:00pm 22.2 E 4 5 1009.3 - 0.0 - - - - - - -
16/06:30pm 22.9 E 4 5 1009.7 - 0.0 - - - - - - -
16/06:00pm 23.2 E 4 6 1009.9 - 0.0 - - - - - - -
16/05:30pm 22.9 E 5 7 1010.2 - 0.0 - - - - - - -
16/05:00pm 22.8 ESE 5 7 1010.5 - 0.0 - - - - - - -
16/04:30pm 22.3 SE 6 8 1010.9 - 0.0 - - - - - - -
16/04:00pm 22.1 SE 7 9 1011.0 - 0.0 - - - - - - -
16/03:30pm 22.1 SE 7 9 1011.6 - 0.0 - - - - - - -
16/03:00pm 22.1 SSE 8 10 1011.9 - 0.0 - - - - - - -
16/02:30pm 22.4 SSE 9 11 1012.4 - 0.0 - - - - - - -
16/02:00pm 22.5 SSE 8 11 1012.7 - 0.0 - - - - - - -
16/01:30pm 21.7 SE 7 9 1012.9 - 0.0 - - - - - - -
16/01:00pm 21.8 SE 7 9 1013.3 - 0.0 - - - - - - -
16/12:30pm 21.3 SE 7 10 1013.4 - 0.0 - - - - - - -
16/12:00pm 21.6 SE 7 8 1013.7 - 0.0 - - - - - - -
16/11:30am 20.5 SE 7 9 1014.1 - 0.0 - - - - - - -
16/11:00am 21.9 NNE 4 7 1014.5 - 0.0 - - - - - - -
16/10:30am 19.7 NE 6 8 1014.8 - 0.0 - - - - - - -
16/10:00am 18.5 NE 5 7 1015.1 - 0.0 - - - - - - -
16/09:30am 16.9 NNE 7 11 1015.3 - 0.0 - - - - - - -
16/09:00am 15.7 NNE 5 8 1015.6 - 0.0 - - - - - - -
16/08:30am 14.4 NE 4 7 1015.4 - 0.0 - - - - - - -
16/08:00am 12.5 NNE 3 5 1015.5 - 0.0 - - - - - - -
16/07:30am 10.8 NNE 2 4 1015.6 - 0.0 - - - - - - -
16/07:00am 9.4 NNE 3 4 1015.1 - 0.0 - - - - - - -
16/06:30am 8.8 N 4 5 1015.3 - 0.0 - - - - - - -
16/06:00am 8.9 NNE 4 6 1015.3 - 0.0 - - - - - - -
16/05:30am 8.8 N 4 5 1015.3 - 0.0 - - - - - - -
16/05:00am 9.2 NNE 3 5 1015.1 - 0.0 - - - - - - -
16/04:30am 9.4 N 4 5 1014.9 - 0.0 - - - - - - -
16/04:00am 9.6 N 4 6 1015.1 - 0.0 - - - - - - -
16/03:30am 9.9 N 3 5 1015.2 - 0.0 - - - - - - -
16/03:00am 10.1 NNE 3 4 1015.4 - 0.0 - - - - - - -
16/02:30am 10.6 N 3 4 1015.6 - 0.0 - - - - - - -
16/02:00am 11.4 NNW 2 3 1016.0 - 0.0 - - - - - - -
16/01:30am 12.1 N 2 2 1016.2 - 0.0 - - - - - - -
16/01:00am 13.9 SSE 2 4 1016.5 - 0.0 - - - - - - -
16/12:30am 14.1 SSE 3 5 1016.9 - 0.0 - - - - - - -
16/12:00am 14.2 SSE 2 4 1017.1 - 0.0 - - - - - - -
 
Date/Time
EDT
Temp
°C
Wind Pressure Rain since
9am
mm
Weather Cloud Vis
km
Sea
Height
m
Swell
Dir  Spd
kts
Gust
kts
hPa Trend Height
m
Period
s
Dir
15/11:30pm 14.6 S 3 4 1017.3 - 0.0 - - - - - - -
15/11:00pm 14.8 SSW 4 5 1017.7 - 0.0 - - - - - - -
15/10:30pm 14.9 SSW 4 6 1017.8 - 0.0 - - - - - - -
15/10:00pm 14.9 SSW 4 6 1017.8 - 0.0 - - - - - - -
15/09:30pm 15.1 SSW 4 6 1017.9 - 0.0 - - - - - - -
15/09:00pm 15.3 SSW 4 6 1017.9 - 0.0 - - - - - - -
15/08:30pm 16.1 SW 4 6 1017.7 - 0.0 - - - - - - -
15/08:00pm 16.6 SW 5 8 1017.6 - 0.0 - - - - - - -
15/07:30pm 17.1 SW 7 9 1017.6 - 0.0 - - - - - - -
15/07:00pm 17.4 SW 8 10 1017.8 - 0.0 - - - - - - -
15/06:30pm 17.8 SSW 7 10 1017.9 - 0.0 - - - - - - -
15/06:00pm 18.1 SSW 8 11 1018.1 - 0.0 - - - - - - -
15/05:30pm 18.2 SSW 9 12 1018.2 - 0.0 - - - - - - -
15/05:00pm 18.1 SW 9 13 1018.5 - 0.0 - - - - - - -

Other Formats:

Comma delimited format used in spreadsheet applications
http://www.bom.gov.au/fwo/IDV60701/IDV60701.94830.axf

JavaScript Object Notation format (JSON) in row-major order
http://www.bom.gov.au/fwo/IDV60701/IDV60701.94830.json